sensor_id;sensor_type;location;lat;lon;timestamp;pressure;altitude;pressure_sealevel;temperature;humidity
71145;BME280;58812;47.698;17.726;2023-04-25T00:00:32;99359.97;;;10.25;95.21
71145;BME280;58812;47.698;17.726;2023-04-25T00:02:57;99357.28;;;10.25;94.40
71145;BME280;58812;47.698;17.726;2023-04-25T00:05:25;99366.47;;;10.23;94.81
71145;BME280;58812;47.698;17.726;2023-04-25T00:07:51;99366.16;;;10.26;94.36
71145;BME280;58812;47.698;17.726;2023-04-25T00:10:18;99366.66;;;10.29;93.11
71145;BME280;58812;47.698;17.726;2023-04-25T00:12:44;99360.66;;;10.27;93.54
71145;BME280;58812;47.698;17.726;2023-04-25T00:15:11;99365.00;;;10.28;93.00
71145;BME280;58812;47.698;17.726;2023-04-25T00:17:37;99362.97;;;10.30;92.86
71145;BME280;58812;47.698;17.726;2023-04-25T00:20:04;99363.97;;;10.29;92.17
71145;BME280;58812;47.698;17.726;2023-04-25T00:22:35;99370.00;;;10.23;93.37
71145;BME280;58812;47.698;17.726;2023-04-25T00:25:03;99376.69;;;10.27;93.15
71145;BME280;58812;47.698;17.726;2023-04-25T00:27:29;99370.97;;;10.22;92.98
71145;BME280;58812;47.698;17.726;2023-04-25T00:29:54;99379.19;;;10.21;92.64
71145;BME280;58812;47.698;17.726;2023-04-25T00:32:19;99369.13;;;10.23;92.37
71145;BME280;58812;47.698;17.726;2023-04-25T00:34:45;99373.50;;;10.24;91.67
71145;BME280;58812;47.698;17.726;2023-04-25T00:37:11;99386.72;;;10.25;90.37
71145;BME280;58812;47.698;17.726;2023-04-25T00:39:36;99385.72;;;10.26;90.56
71145;BME280;58812;47.698;17.726;2023-04-25T00:42:02;99376.31;;;10.22;90.06
71145;BME280;58812;47.698;17.726;2023-04-25T00:44:29;99373.66;;;10.22;89.85
71145;BME280;58812;47.698;17.726;2023-04-25T00:46:56;99372.00;;;10.21;90.18
71145;BME280;58812;47.698;17.726;2023-04-25T00:49:22;99364.62;;;10.15;90.00
71145;BME280;58812;47.698;17.726;2023-04-25T00:51:47;99383.00;;;10.18;89.82
71145;BME280;58812;47.698;17.726;2023-04-25T00:54:13;99370.81;;;10.15;89.75
71145;BME280;58812;47.698;17.726;2023-04-25T00:56:39;99368.97;;;10.16;89.17
71145;BME280;58812;47.698;17.726;2023-04-25T00:59:05;99383.69;;;10.20;88.15
71145;BME280;58812;47.698;17.726;2023-04-25T01:01:31;99364.44;;;10.16;87.80
71145;BME280;58812;47.698;17.726;2023-04-25T01:03:58;99373.00;;;10.20;87.26
71145;BME280;58812;47.698;17.726;2023-04-25T01:06:24;99368.00;;;10.25;85.18
71145;BME280;58812;47.698;17.726;2023-04-25T01:08:51;99370.66;;;10.25;86.36
71145;BME280;58812;47.698;17.726;2023-04-25T01:11:16;99365.62;;;10.22;86.40
71145;BME280;58812;47.698;17.726;2023-04-25T01:13:42;99370.31;;;10.20;86.25
71145;BME280;58812;47.698;17.726;2023-04-25T01:16:07;99374.66;;;10.21;86.19
71145;BME280;58812;47.698;17.726;2023-04-25T01:18:33;99377.16;;;10.23;86.28
71145;BME280;58812;47.698;17.726;2023-04-25T01:21:07;99378.84;;;10.24;85.36
71145;BME280;58812;47.698;17.726;2023-04-25T01:23:34;99374.66;;;10.21;85.88
71145;BME280;58812;47.698;17.726;2023-04-25T01:26:00;99372.12;;;10.20;85.67
71145;BME280;58812;47.698;17.726;2023-04-25T01:28:26;99373.97;;;10.19;85.10
71145;BME280;58812;47.698;17.726;2023-04-25T01:30:52;99370.97;;;10.14;85.98
71145;BME280;58812;47.698;17.726;2023-04-25T01:33:19;99367.44;;;10.13;85.80
71145;BME280;58812;47.698;17.726;2023-04-25T01:35:46;99368.09;;;10.07;86.06
71145;BME280;58812;47.698;17.726;2023-04-25T01:38:12;99370.63;;;10.09;86.41
71145;BME280;58812;47.698;17.726;2023-04-25T01:40:38;99372.62;;;10.07;86.07
71145;BME280;58812;47.698;17.726;2023-04-25T01:43:05;99375.47;;;10.05;85.75
71145;BME280;58812;47.698;17.726;2023-04-25T01:45:31;99373.63;;;10.06;85.61
71145;BME280;58812;47.698;17.726;2023-04-25T01:47:56;99369.78;;;10.00;86.71
71145;BME280;58812;47.698;17.726;2023-04-25T01:50:25;99371.62;;;10.00;86.86
71145;BME280;58812;47.698;17.726;2023-04-25T01:52:50;99368.28;;;9.98;87.34
71145;BME280;58812;47.698;17.726;2023-04-25T01:55:16;99368.59;;;9.95;87.93
71145;BME280;58812;47.698;17.726;2023-04-25T01:57:41;99377.78;;;9.92;88.16
71145;BME280;58812;47.698;17.726;2023-04-25T02:00:07;99370.91;;;9.89;88.58
71145;BME280;58812;47.698;17.726;2023-04-25T02:02:34;99363.91;;;9.88;88.37
71145;BME280;58812;47.698;17.726;2023-04-25T02:05:00;99368.59;;;9.86;88.26
71145;BME280;58812;47.698;17.726;2023-04-25T02:07:26;99365.91;;;9.86;87.61
71145;BME280;58812;47.698;17.726;2023-04-25T02:09:52;99369.59;;;9.85;87.06
71145;BME280;58812;47.698;17.726;2023-04-25T02:12:17;99362.59;;;9.84;86.85
71145;BME280;58812;47.698;17.726;2023-04-25T02:14:43;99366.22;;;9.83;87.11
71145;BME280;58812;47.698;17.726;2023-04-25T02:17:08;99360.56;;;9.86;85.69
71145;BME280;58812;47.698;17.726;2023-04-25T02:19:34;99360.56;;;9.86;85.33
71145;BME280;58812;47.698;17.726;2023-04-25T02:21:59;99358.72;;;9.87;84.86
71145;BME280;58812;47.698;17.726;2023-04-25T02:24:25;99362.91;;;9.89;84.11
71145;BME280;58812;47.698;17.726;2023-04-25T02:26:50;99363.91;;;9.88;84.00
71145;BME280;58812;47.698;17.726;2023-04-25T02:29:16;99354.22;;;9.87;82.40
71145;BME280;58812;47.698;17.726;2023-04-25T02:31:41;99360.09;;;9.91;82.24
71145;BME280;58812;47.698;17.726;2023-04-25T02:34:07;99360.22;;;9.89;82.47
71145;BME280;58812;47.698;17.726;2023-04-25T02:36:32;99357.56;;;9.89;81.59
71145;BME280;58812;47.698;17.726;2023-04-25T02:39:00;99364.59;;;9.90;81.00
71145;BME280;58812;47.698;17.726;2023-04-25T02:41:26;99365.25;;;9.93;80.61
71145;BME280;58812;47.698;17.726;2023-04-25T02:43:51;99363.91;;;9.88;81.13
71145;BME280;58812;47.698;17.726;2023-04-25T02:46:17;99360.56;;;9.86;80.53
71145;BME280;58812;47.698;17.726;2023-04-25T02:48:42;99358.91;;;9.85;80.37
71145;BME280;58812;47.698;17.726;2023-04-25T02:51:08;99362.59;;;9.84;80.32
71145;BME280;58812;47.698;17.726;2023-04-25T02:53:34;99371.75;;;9.90;79.31
71145;BME280;58812;47.698;17.726;2023-04-25T02:55:59;99350.72;;;9.87;79.24
71145;BME280;58812;47.698;17.726;2023-04-25T02:58:25;99354.88;;;9.89;79.01
71145;BME280;58812;47.698;17.726;2023-04-25T03:00:50;99355.06;;;9.88;78.97
71145;BME280;58812;47.698;17.726;2023-04-25T03:03:16;99356.72;;;9.89;78.48
71145;BME280;58812;47.698;17.726;2023-04-25T03:05:43;99358.06;;;9.85;79.30
71145;BME280;58812;47.698;17.726;2023-04-25T03:08:09;99355.22;;;9.86;79.12
71145;BME280;58812;47.698;17.726;2023-04-25T03:10:34;99359.72;;;9.86;78.49
71145;BME280;58812;47.698;17.726;2023-04-25T03:13:00;99357.22;;;9.84;78.72
71145;BME280;58812;47.698;17.726;2023-04-25T03:15:25;99356.53;;;9.82;78.73
71145;BME280;58812;47.698;17.726;2023-04-25T03:17:51;99348.88;;;9.79;79.53
71145;BME280;58812;47.698;17.726;2023-04-25T03:20:16;99355.88;;;9.80;79.07
71145;BME280;58812;47.698;17.726;2023-04-25T03:22:42;99355.22;;;9.78;78.96
71145;BME280;58812;47.698;17.726;2023-04-25T03:25:07;99351.19;;;9.74;79.42
71145;BME280;58812;47.698;17.726;2023-04-25T03:27:33;99354.88;;;9.73;79.66
71145;BME280;58812;47.698;17.726;2023-04-25T03:29:58;99355.84;;;9.72;80.18
71145;BME280;58812;47.698;17.726;2023-04-25T03:32:24;99354.50;;;9.68;80.22
71145;BME280;58812;47.698;17.726;2023-04-25T03:34:50;99356.34;;;9.68;80.69
71145;BME280;58812;47.698;17.726;2023-04-25T03:37:15;99358.19;;;9.67;79.39
71145;BME280;58812;47.698;17.726;2023-04-25T03:39:41;99353.50;;;9.69;79.52
71145;BME280;58812;47.698;17.726;2023-04-25T03:42:06;99358.84;;;9.69;79.88
71145;BME280;58812;47.698;17.726;2023-04-25T03:44:32;99355.53;;;9.67;78.73
71145;BME280;58812;47.698;17.726;2023-04-25T03:46:57;99357.34;;;9.67;78.68
71145;BME280;58812;47.698;17.726;2023-04-25T03:49:23;99352.50;;;9.70;77.54
71145;BME280;58812;47.698;17.726;2023-04-25T03:51:48;99358.19;;;9.67;78.12
71145;BME280;58812;47.698;17.726;2023-04-25T03:54:13;99360.50;;;9.62;79.11
71145;BME280;58812;47.698;17.726;2023-04-25T03:56:39;99364.19;;;9.61;79.05
71145;BME280;58812;47.698;17.726;2023-04-25T03:59:04;99368.84;;;9.59;79.31
71145;BME280;58812;47.698;17.726;2023-04-25T04:01:30;99359.16;;;9.58;78.48
71145;BME280;58812;47.698;17.726;2023-04-25T04:03:55;99353.81;;;9.58;78.10
71145;BME280;58812;47.698;17.726;2023-04-25T04:06:21;99358.16;;;9.59;78.11
71145;BME280;58812;47.698;17.726;2023-04-25T04:08:47;99360.81;;;9.59;78.04
71145;BME280;58812;47.698;17.726;2023-04-25T04:11:12;99366.16;;;9.59;77.82
71145;BME280;58812;47.698;17.726;2023-04-25T04:13:37;99370.84;;;9.57;78.60
71145;BME280;58812;47.698;17.726;2023-04-25T04:16:03;99371.69;;;9.57;77.94
71145;BME280;58812;47.698;17.726;2023-04-25T04:18:29;99375.34;;;9.56;78.26
71145;BME280;58812;47.698;17.726;2023-04-25T04:20:55;99377.34;;;9.54;78.34
71145;BME280;58812;47.698;17.726;2023-04-25T04:23:23;99378.50;;;9.52;79.08
71145;BME280;58812;47.698;17.726;2023-04-25T04:25:48;99386.84;;;9.49;80.16
71145;BME280;58812;47.698;17.726;2023-04-25T04:28:14;99385.03;;;9.49;80.13
71145;BME280;58812;47.698;17.726;2023-04-25T04:30:41;99381.81;;;9.46;79.76
71145;BME280;58812;47.698;17.726;2023-04-25T04:33:08;99392.19;;;9.49;79.41
71145;BME280;58812;47.698;17.726;2023-04-25T04:35:34;99382.19;;;9.51;79.47
71145;BME280;58812;47.698;17.726;2023-04-25T04:37:59;99386.84;;;9.49;79.66
71145;BME280;58812;47.698;17.726;2023-04-25T04:40:25;99398.22;;;9.51;78.95
71145;BME280;58812;47.698;17.726;2023-04-25T04:42:51;99395.91;;;9.56;78.34
71145;BME280;58812;47.698;17.726;2023-04-25T04:45:18;99389.38;;;9.58;77.47
71145;BME280;58812;47.698;17.726;2023-04-25T04:47:44;99383.87;;;9.60;77.58
71145;BME280;58812;47.698;17.726;2023-04-25T04:50:10;99386.72;;;9.58;78.18
71145;BME280;58812;47.698;17.726;2023-04-25T04:52:37;99381.53;;;9.57;78.56
71145;BME280;58812;47.698;17.726;2023-04-25T04:55:04;99395.25;;;9.62;78.35
71145;BME280;58812;47.698;17.726;2023-04-25T04:57:30;99381.88;;;9.62;78.87
71145;BME280;58812;47.698;17.726;2023-04-25T04:59:56;99384.56;;;9.62;78.53
71145;BME280;58812;47.698;17.726;2023-04-25T05:02:22;99392.25;;;9.65;78.45
71145;BME280;58812;47.698;17.726;2023-04-25T05:04:47;99379.88;;;9.64;77.80
71145;BME280;58812;47.698;17.726;2023-04-25T05:07:12;99392.75;;;9.69;77.42
71145;BME280;58812;47.698;17.726;2023-04-25T05:09:38;99373.34;;;9.58;77.24
71145;BME280;58812;47.698;17.726;2023-04-25T05:12:04;99381.91;;;9.70;77.02
71145;BME280;58812;47.698;17.726;2023-04-25T05:14:30;99384.09;;;9.75;76.84
71145;BME280;58812;47.698;17.726;2023-04-25T05:16:55;99392.94;;;9.75;76.84
71145;BME280;58812;47.698;17.726;2023-04-25T05:19:21;99379.59;;;9.75;76.14
71145;BME280;58812;47.698;17.726;2023-04-25T05:21:46;99387.44;;;9.77;75.73
71145;BME280;58812;47.698;17.726;2023-04-25T05:24:12;99394.62;;;9.76;76.55
71145;BME280;58812;47.698;17.726;2023-04-25T05:26:38;99394.44;;;9.78;76.67
71145;BME280;58812;47.698;17.726;2023-04-25T05:29:03;99390.78;;;9.79;76.90
71145;BME280;58812;47.698;17.726;2023-04-25T05:31:28;99403.16;;;9.80;77.63
71145;BME280;58812;47.698;17.726;2023-04-25T05:33:54;99405.34;;;9.84;77.07
71145;BME280;58812;47.698;17.726;2023-04-25T05:36:20;99405.34;;;9.84;76.50
71145;BME280;58812;47.698;17.726;2023-04-25T05:38:45;99395.16;;;9.88;76.92
71145;BME280;58812;47.698;17.726;2023-04-25T05:41:11;99392.66;;;9.86;77.12
71145;BME280;58812;47.698;17.726;2023-04-25T05:43:36;99383.31;;;9.90;77.52
71145;BME280;58812;47.698;17.726;2023-04-25T05:46:01;99390.47;;;9.90;75.99
71145;BME280;58812;47.698;17.726;2023-04-25T05:48:27;99394.16;;;9.89;76.34
71145;BME280;58812;47.698;17.726;2023-04-25T05:50:52;99387.00;;;9.98;76.20
71145;BME280;58812;47.698;17.726;2023-04-25T05:53:19;99387.16;;;9.96;76.18
71145;BME280;58812;47.698;17.726;2023-04-25T05:55:44;99391.50;;;10.05;76.10
71145;BME280;58812;47.698;17.726;2023-04-25T05:58:10;99391.34;;;9.99;75.58
71145;BME280;58812;47.698;17.726;2023-04-25T06:00:35;99391.69;;;10.12;75.98
71145;BME280;58812;47.698;17.726;2023-04-25T06:03:01;99391.22;;;10.25;76.06
71145;BME280;58812;47.698;17.726;2023-04-25T06:05:26;99382.50;;;10.23;74.53
71145;BME280;58812;47.698;17.726;2023-04-25T06:07:52;99386.91;;;10.40;74.33
71145;BME280;58812;47.698;17.726;2023-04-25T06:10:17;99381.56;;;10.40;74.35
71145;BME280;58812;47.698;17.726;2023-04-25T06:12:43;99394.44;;;10.45;73.82
71145;BME280;58812;47.698;17.726;2023-04-25T06:15:09;99395.75;;;10.65;73.58
71145;BME280;58812;47.698;17.726;2023-04-25T06:17:35;99394.75;;;10.66;74.40
71145;BME280;58812;47.698;17.726;2023-04-25T06:20:01;99386.69;;;10.90;73.29
71145;BME280;58812;47.698;17.726;2023-04-25T06:22:27;99389.00;;;11.02;73.68
71145;BME280;58812;47.698;17.726;2023-04-25T06:24:52;99399.22;;;10.90;71.97
71145;BME280;58812;47.698;17.726;2023-04-25T06:27:18;99394.72;;;10.99;72.36
71145;BME280;58812;47.698;17.726;2023-04-25T06:29:43;99381.28;;;11.07;72.87
71145;BME280;58812;47.698;17.726;2023-04-25T06:32:08;99397.94;;;11.41;74.46
71145;BME280;58812;47.698;17.726;2023-04-25T06:34:34;99395.66;;;11.22;71.79
71145;BME280;58812;47.698;17.726;2023-04-25T06:36:59;99393.28;;;11.35;72.53
71145;BME280;58812;47.698;17.726;2023-04-25T06:39:24;99399.87;;;11.56;72.28
71145;BME280;58812;47.698;17.726;2023-04-25T06:41:50;99395.25;;;11.41;70.43
71145;BME280;58812;47.698;17.726;2023-04-25T06:44:16;99393.09;;;11.76;70.37
71145;BME280;58812;47.698;17.726;2023-04-25T06:46:41;99399.72;;;11.57;69.69
71145;BME280;58812;47.698;17.726;2023-04-25T06:49:07;99394.06;;;11.44;69.69
71145;BME280;58812;47.698;17.726;2023-04-25T06:51:32;99394.09;;;11.83;68.86
71145;BME280;58812;47.698;17.726;2023-04-25T06:53:58;99393.88;;;11.93;69.60
71145;BME280;58812;47.698;17.726;2023-04-25T06:56:24;99392.22;;;11.53;69.22
71145;BME280;58812;47.698;17.726;2023-04-25T06:58:49;99390.66;;;11.58;68.64
71145;BME280;58812;47.698;17.726;2023-04-25T07:01:15;99389.78;;;11.66;70.84
71145;BME280;58812;47.698;17.726;2023-04-25T07:03:40;99391.06;;;11.86;68.63
71145;BME280;58812;47.698;17.726;2023-04-25T07:06:06;99392.59;;;12.12;67.78
71145;BME280;58812;47.698;17.726;2023-04-25T07:08:31;99386.75;;;12.31;68.97
71145;BME280;58812;47.698;17.726;2023-04-25T07:10:57;99396.44;;;12.09;67.62
71145;BME280;58812;47.698;17.726;2023-04-25T07:13:22;99400.97;;;12.09;68.66
71145;BME280;58812;47.698;17.726;2023-04-25T07:15:48;99385.44;;;11.65;68.36
71145;BME280;58812;47.698;17.726;2023-04-25T07:18:14;99391.25;;;12.08;69.71
71145;BME280;58812;47.698;17.726;2023-04-25T07:20:39;99388.00;;;11.58;68.30
71145;BME280;58812;47.698;17.726;2023-04-25T07:23:04;99389.38;;;11.85;68.89
71145;BME280;58812;47.698;17.726;2023-04-25T07:25:30;99387.72;;;11.84;68.44
71145;BME280;58812;47.698;17.726;2023-04-25T07:27:56;99390.72;;;11.89;68.35
71145;BME280;58812;47.698;17.726;2023-04-25T07:30:21;99380.34;;;11.78;69.37
71145;BME280;58812;47.698;17.726;2023-04-25T07:32:48;99387.69;;;11.92;68.05
71145;BME280;58812;47.698;17.726;2023-04-25T07:35:13;99384.84;;;12.17;68.19
71145;BME280;58812;47.698;17.726;2023-04-25T07:37:39;99393.91;;;12.16;67.90
71145;BME280;58812;47.698;17.726;2023-04-25T07:40:05;99384.78;;;12.25;68.39
71145;BME280;58812;47.698;17.726;2023-04-25T07:42:31;99388.88;;;12.13;66.52
71145;BME280;58812;47.698;17.726;2023-04-25T07:44:57;99382.06;;;12.71;68.76
71145;BME280;58812;47.698;17.726;2023-04-25T07:47:22;99389.00;;;12.42;67.48
71145;BME280;58812;47.698;17.726;2023-04-25T07:49:48;99383.34;;;12.37;68.03
71145;BME280;58812;47.698;17.726;2023-04-25T07:52:14;99377.44;;;12.19;67.33
71145;BME280;58812;47.698;17.726;2023-04-25T07:54:39;99389.44;;;12.69;66.54
71145;BME280;58812;47.698;17.726;2023-04-25T07:57:05;99385.28;;;12.66;66.93
71145;BME280;58812;47.698;17.726;2023-04-25T07:59:32;99394.72;;;12.62;66.39
71145;BME280;58812;47.698;17.726;2023-04-25T08:01:57;99391.59;;;12.73;66.22
71145;BME280;58812;47.698;17.726;2023-04-25T08:04:23;99387.94;;;12.89;65.76
71145;BME280;58812;47.698;17.726;2023-04-25T08:06:49;99385.66;;;13.45;64.01
71145;BME280;58812;47.698;17.726;2023-04-25T08:09:15;99385.81;;;12.99;63.63
71145;BME280;58812;47.698;17.726;2023-04-25T08:11:41;99389.69;;;13.85;63.07
71145;BME280;58812;47.698;17.726;2023-04-25T08:14:07;99383.66;;;14.62;60.34
71145;BME280;58812;47.698;17.726;2023-04-25T08:16:32;99394.84;;;14.59;60.20
71145;BME280;58812;47.698;17.726;2023-04-25T08:18:59;99384.97;;;14.09;60.47
71145;BME280;58812;47.698;17.726;2023-04-25T08:21:25;99394.59;;;14.82;59.39
71145;BME280;58812;47.698;17.726;2023-04-25T08:23:52;99392.84;;;14.96;57.51
71145;BME280;58812;47.698;17.726;2023-04-25T08:26:17;99390.34;;;15.29;56.84
71145;BME280;58812;47.698;17.726;2023-04-25T08:28:42;99384.63;;;15.39;55.35
71145;BME280;58812;47.698;17.726;2023-04-25T08:31:08;99386.19;;;15.61;55.91
71145;BME280;58812;47.698;17.726;2023-04-25T08:33:33;99389.28;;;14.46;56.40
71145;BME280;58812;47.698;17.726;2023-04-25T08:35:59;99388.97;;;14.34;56.74
71145;BME280;58812;47.698;17.726;2023-04-25T08:38:25;99381.19;;;14.89;57.73
71145;BME280;58812;47.698;17.726;2023-04-25T08:40:51;99389.81;;;14.78;57.33
71145;BME280;58812;47.698;17.726;2023-04-25T08:43:18;99390.09;;;14.89;56.09
71145;BME280;58812;47.698;17.726;2023-04-25T08:45:44;99390.91;;;14.83;57.66
71145;BME280;58812;47.698;17.726;2023-04-25T08:48:12;99386.50;;;14.54;58.79
71145;BME280;58812;47.698;17.726;2023-04-25T08:50:58;99381.44;;;14.66;57.25
71145;BME280;58812;47.698;17.726;2023-04-25T08:53:27;99381.38;;;14.87;58.09
71145;BME280;58812;47.698;17.726;2023-04-25T08:55:55;99385.31;;;14.21;57.77
71145;BME280;58812;47.698;17.726;2023-04-25T08:58:21;99383.84;;;14.18;58.91
71145;BME280;58812;47.698;17.726;2023-04-25T09:00:47;99381.81;;;14.41;56.92
71145;BME280;58812;47.698;17.726;2023-04-25T09:03:13;99388.66;;;14.65;56.52
71145;BME280;58812;47.698;17.726;2023-04-25T09:05:40;99380.03;;;15.67;54.55
71145;BME280;58812;47.698;17.726;2023-04-25T09:08:06;99390.06;;;15.52;52.95
71145;BME280;58812;47.698;17.726;2023-04-25T09:10:32;99389.25;;;15.93;51.04
71145;BME280;58812;47.698;17.726;2023-04-25T09:13:08;99396.25;;;16.62;49.25
71145;BME280;58812;47.698;17.726;2023-04-25T09:15:49;99395.03;;;17.04;49.79
71145;BME280;58812;47.698;17.726;2023-04-25T09:18:36;99381.66;;;16.29;49.15
71145;BME280;58812;47.698;17.726;2023-04-25T09:21:07;99398.19;;;17.85;45.58
71145;BME280;58812;47.698;17.726;2023-04-25T09:23:45;99391.22;;;17.25;46.43
71145;BME280;58812;47.698;17.726;2023-04-25T09:26:15;99384.41;;;16.82;45.67
71145;BME280;58812;47.698;17.726;2023-04-25T09:28:42;99374.56;;;17.41;45.71
71145;BME280;58812;47.698;17.726;2023-04-25T09:31:09;99382.16;;;17.77;44.32
71145;BME280;58812;47.698;17.726;2023-04-25T09:33:36;99376.78;;;17.64;44.94
71145;BME280;58812;47.698;17.726;2023-04-25T09:36:06;99383.97;;;17.97;44.63
71145;BME280;58812;47.698;17.726;2023-04-25T09:38:42;99381.09;;;17.78;44.60
71145;BME280;58812;47.698;17.726;2023-04-25T09:41:09;99380.62;;;17.95;45.12
71145;BME280;58812;47.698;17.726;2023-04-25T09:43:36;99380.44;;;18.59;44.13
71145;BME280;58812;47.698;17.726;2023-04-25T09:46:02;99377.69;;;18.03;43.14
71145;BME280;58812;47.698;17.726;2023-04-25T09:48:28;99376.16;;;17.62;43.91
71145;BME280;58812;47.698;17.726;2023-04-25T09:53:29;99380.94;;;18.11;41.18
71145;BME280;58812;47.698;17.726;2023-04-25T09:55:55;99383.84;;;18.17;42.22
71145;BME280;58812;47.698;17.726;2023-04-25T09:58:23;99380.62;;;18.33;41.24
71145;BME280;58812;47.698;17.726;2023-04-25T10:00:50;99372.00;;;17.53;42.10
71145;BME280;58812;47.698;17.726;2023-04-25T10:03:17;99377.41;;;18.11;40.97
71145;BME280;58812;47.698;17.726;2023-04-25T10:05:44;99378.06;;;18.38;40.39
71145;BME280;58812;47.698;17.726;2023-04-25T10:08:12;99373.12;;;17.97;40.36
71145;BME280;58812;47.698;17.726;2023-04-25T10:10:39;99359.69;;;19.21;38.84
71145;BME280;58812;47.698;17.726;2023-04-25T10:13:05;99376.81;;;18.09;41.33
71145;BME280;58812;47.698;17.726;2023-04-25T10:15:34;99376.03;;;17.95;42.10
71145;BME280;58812;47.698;17.726;2023-04-25T10:18:01;99380.22;;;17.26;42.78
71145;BME280;58812;47.698;17.726;2023-04-25T10:20:27;99377.31;;;17.21;43.36
71145;BME280;58812;47.698;17.726;2023-04-25T10:22:54;99382.09;;;18.29;42.00
71145;BME280;58812;47.698;17.726;2023-04-25T10:25:22;99366.47;;;17.93;40.57
71145;BME280;58812;47.698;17.726;2023-04-25T10:27:51;99366.88;;;17.89;39.43
71145;BME280;58812;47.698;17.726;2023-04-25T10:30:18;99381.53;;;16.91;40.35
71145;BME280;58812;47.698;17.726;2023-04-25T10:32:44;99363.34;;;17.24;39.58
71145;BME280;58812;47.698;17.726;2023-04-25T10:35:18;99366.84;;;18.34;39.30
71145;BME280;58812;47.698;17.726;2023-04-25T10:38:09;99367.38;;;18.18;38.67
71145;BME280;58812;47.698;17.726;2023-04-25T10:40:35;99365.09;;;16.72;39.94
71145;BME280;58812;47.698;17.726;2023-04-25T10:45:54;99375.00;;;17.38;38.18
71145;BME280;58812;47.698;17.726;2023-04-25T10:48:29;99358.78;;;17.31;38.94
71145;BME280;58812;47.698;17.726;2023-04-25T10:51:11;99359.44;;;17.20;38.78
71145;BME280;58812;47.698;17.726;2023-04-25T10:53:37;99371.72;;;16.63;40.42
71145;BME280;58812;47.698;17.726;2023-04-25T10:56:19;99370.88;;;17.09;40.41
71145;BME280;58812;47.698;17.726;2023-04-25T10:58:48;99369.88;;;17.68;40.02
71145;BME280;58812;47.698;17.726;2023-04-25T11:01:20;99365.09;;;16.72;38.66
71145;BME280;58812;47.698;17.726;2023-04-25T11:03:46;99372.78;;;17.67;38.07
71145;BME280;58812;47.698;17.726;2023-04-25T11:06:55;99376.22;;;17.42;38.97
71145;BME280;58812;47.698;17.726;2023-04-25T11:09:24;99371.16;;;18.42;37.27
71145;BME280;58812;47.698;17.726;2023-04-25T11:11:59;99362.69;;;17.35;38.92
71145;BME280;58812;47.698;17.726;2023-04-25T11:14:25;99356.88;;;17.97;37.89
71145;BME280;58812;47.698;17.726;2023-04-25T11:16:54;99353.25;;;18.98;37.19
71145;BME280;58812;47.698;17.726;2023-04-25T11:19:23;99353.34;;;17.89;36.76
71145;BME280;58812;47.698;17.726;2023-04-25T11:21:49;99355.31;;;18.46;36.06
71145;BME280;58812;47.698;17.726;2023-04-25T11:24:16;99341.19;;;18.68;36.40
71145;BME280;58812;47.698;17.726;2023-04-25T11:26:43;99340.88;;;19.20;34.94
71145;BME280;58812;47.698;17.726;2023-04-25T11:29:09;99346.06;;;17.39;37.11
71145;BME280;58812;47.698;17.726;2023-04-25T11:31:34;99345.06;;;17.13;38.79
71145;BME280;58812;47.698;17.726;2023-04-25T11:34:00;99347.41;;;16.63;39.84
71145;BME280;58812;47.698;17.726;2023-04-25T11:36:26;99352.19;;;16.61;40.25
71145;BME280;58812;47.698;17.726;2023-04-25T11:38:52;99349.44;;;16.48;41.22
71145;BME280;58812;47.698;17.726;2023-04-25T11:41:19;99335.12;;;16.87;40.54
71145;BME280;58812;47.698;17.726;2023-04-25T11:43:45;99338.87;;;16.40;41.72
71145;BME280;58812;47.698;17.726;2023-04-25T11:46:11;99330.97;;;16.45;41.72
71145;BME280;58812;47.698;17.726;2023-04-25T11:48:42;99344.41;;;17.24;41.29
71145;BME280;58812;47.698;17.726;2023-04-25T11:51:08;99346.37;;;18.07;42.43
71145;BME280;58812;47.698;17.726;2023-04-25T11:53:35;99338.31;;;17.55;39.34
71145;BME280;58812;47.698;17.726;2023-04-25T11:56:01;99349.72;;;18.09;38.43
71145;BME280;58812;47.698;17.726;2023-04-25T11:58:27;99342.94;;;18.25;39.40
71145;BME280;58812;47.698;17.726;2023-04-25T12:00:53;99346.72;;;18.80;38.07
71145;BME280;58812;47.698;17.726;2023-04-25T12:03:19;99341.22;;;18.87;36.31
71145;BME280;58812;47.698;17.726;2023-04-25T12:05:45;99333.28;;;19.47;35.40
71145;BME280;58812;47.698;17.726;2023-04-25T12:08:17;99331.78;;;19.69;35.51
71145;BME280;58812;47.698;17.726;2023-04-25T12:10:43;99324.47;;;19.33;34.41
71145;BME280;58812;47.698;17.726;2023-04-25T12:13:23;99327.78;;;19.35;35.70
71145;BME280;58812;47.698;17.726;2023-04-25T12:15:49;99332.56;;;18.22;36.96
71145;BME280;58812;47.698;17.726;2023-04-25T12:18:19;99328.25;;;18.39;38.08
71145;BME280;58812;47.698;17.726;2023-04-25T12:20:44;99329.91;;;17.70;38.93
71145;BME280;58812;47.698;17.726;2023-04-25T12:23:10;99344.69;;;16.83;40.15
71145;BME280;58812;47.698;17.726;2023-04-25T12:25:44;99341.59;;;16.79;40.54
71145;BME280;58812;47.698;17.726;2023-04-25T12:28:18;99357.53;;;16.21;42.19
71145;BME280;58812;47.698;17.726;2023-04-25T12:31:03;99354.22;;;16.19;42.34
71145;BME280;58812;47.698;17.726;2023-04-25T12:33:33;99356.62;;;15.88;45.14
71145;BME280;58812;47.698;17.726;2023-04-25T12:36:00;99364.19;;;15.23;48.36
71145;BME280;58812;47.698;17.726;2023-04-25T12:38:36;99361.91;;;14.92;51.75
71145;BME280;58812;47.698;17.726;2023-04-25T12:41:02;99362.38;;;14.67;55.38
71145;BME280;58812;47.698;17.726;2023-04-25T12:43:28;99350.06;;;14.58;54.04
71145;BME280;58812;47.698;17.726;2023-04-25T12:45:54;99354.03;;;14.41;56.16
71145;BME280;58812;47.698;17.726;2023-04-25T12:48:20;99347.56;;;14.57;54.43
71145;BME280;58812;47.698;17.726;2023-04-25T12:50:47;99350.56;;;14.68;54.74
71145;BME280;58812;47.698;17.726;2023-04-25T12:53:18;99343.59;;;14.81;53.13
71145;BME280;58812;47.698;17.726;2023-04-25T12:55:44;99348.66;;;14.62;53.91